METAR Data
IDs: Format: Raw Decoded Include TAF

Data at: 0831 UTC 23 Sep 2018

KAUN 230815Z AUTO 10007KT 10SM CLR 21/02 A2991 RMK A01
KAUN 230755Z AUTO 09007KT 10SM CLR 21/02 A2990 RMK A01
KAUN 230735Z AUTO 11009KT 10SM CLR 21/02 A2990 RMK A01
KAUN 230715Z AUTO 10008KT 10SM CLR 21/02 A2990 RMK A01
KAUN 230655Z AUTO 11009KT 10SM CLR 22/02 A2990 RMK A01
KAUN 230635Z AUTO 10009KT 10SM CLR 22/02 A2991 RMK A01
KAUN 230615Z AUTO 10010KT 10SM CLR 22/02 A2990 RMK A01
KAUN 230555Z AUTO 10010KT 10SM CLR 22/02 A2991 RMK A01
KAUN 230535Z AUTO 09008KT 10SM CLR 22/02 A2991 RMK A01
KAUN 230515Z AUTO 09007KT 10SM CLR 22/02 A2991 RMK A01
KAUN 230455Z AUTO 10007KT 10SM CLR 22/02 A2991 RMK A01
KAUN 230435Z AUTO 10006KT 10SM CLR 22/03 A2992 RMK A01
KAUN 230415Z AUTO 11007KT 10SM CLR 23/02 A2992 RMK A01
KAUN 230355Z AUTO 11005KT 10SM CLR 23/02 A2991 RMK A01
KAUN 230335Z AUTO 00000KT 10SM CLR 23/02 A2992 RMK A01
KAUN 230315Z AUTO 13004KT 10SM CLR 22/03 A2992 RMK A01
KAUN 230255Z AUTO 00000KT 10SM CLR 21/02 A2992 RMK A01
KAUN 230235Z AUTO 00000KT 10SM CLR 20/02 A2992 RMK A01
KAUN 230215Z AUTO 00000KT 10SM CLR 23/02 A2992 RMK A01
KAUN 230155Z AUTO 00000KT 10SM CLR 25/02 A2992 RMK A01
KAUN 230135Z AUTO 00000KT 10SM CLR 27/02 A2992 RMK A01
KAUN 230115Z AUTO 24003KT 10SM CLR 28/02 A2993 RMK A01
KAUN 230055Z AUTO 24004KT 10SM CLR 29/02 A2993 RMK A01
KAUN 230035Z AUTO 26004KT 10SM CLR 30/02 A2993 RMK A01
KAUN 230015Z AUTO 25004KT 10SM CLR 30/02 A2993 RMK A01
KAUN 222355Z AUTO 26005KT 10SM CLR 30/01 A2994 RMK A01
KAUN 222335Z AUTO 27006KT 10SM CLR 30/01 A2994 RMK A01
KAUN 222315Z AUTO 19007KT 9SM CLR 31/00 A2994 RMK A01
KAUN 222255Z AUTO 24005KT 10SM CLR 31/02 A2995 RMK A01
KAUN 222235Z AUTO 22003KT 10SM CLR 30/02 A2995 RMK A01
KAUN 222215Z AUTO 22008KT 10SM CLR 30/02 A2996 RMK A01
KAUN 222155Z AUTO 21008KT 10SM CLR 30/02 A2996 RMK A01
KAUN 222135Z AUTO 22007KT 10SM CLR 30/02 A2997 RMK A01
KAUN 222115Z AUTO 00000KT 10SM CLR 31/02 A2997 RMK A01
KAUN 222055Z AUTO VRB05KT 10SM CLR 31/02 A2998 RMK A01
KAUN 222035Z AUTO 25005G12KT 10SM CLR 30/01 A2998 RMK A01
KAUN 222015Z AUTO 27007KT 10SM CLR 30/02 A2999 RMK A01
KAUN 221955Z AUTO 19006G11KT 10SM CLR 30/01 A2999 RMK A01
KAUN 221930Z AUTO 20006KT 10SM CLR 30/02 A3000 RMK A01
KAUN 221915Z AUTO 20006KT 10SM CLR 30/02 A3000 RMK A01
KAUN 221855Z AUTO VRB06KT 10SM CLR 30/03 A3000 RMK A01
KAUN 221835Z AUTO 20006KT 10SM CLR 29/01 A3000 RMK A01
KAUN 221815Z AUTO 22006KT 10SM CLR 29/02 A3000 RMK A01
KAUN 221755Z AUTO 19006KT 10SM CLR 29/01 A3000 RMK A01
KAUN 221735Z AUTO 16005KT 10SM CLR 29/02 A3000 RMK A01
KAUN 221715Z AUTO 12006KT 10SM CLR 28/02 A3000 RMK A01
KAUN 221655Z AUTO 12005KT 10SM CLR 27/02 A3000 RMK A01
KAUN 221635Z AUTO 11006KT 10SM CLR 26/02 A3000 RMK A01
KAUN 221615Z AUTO 10009KT 10SM CLR 25/02 A2999 RMK A01
KAUN 221555Z AUTO 10009KT 10SM CLR 24/02 A2999 RMK A01
KAUN 221535Z AUTO 10010KT 10SM CLR 23/02 A3000 RMK A01
KAUN 221515Z AUTO 10011KT 10SM CLR 22/01 A2999 RMK A01
KAUN 221455Z AUTO 09011KT 10SM CLR 21/01 A2999 RMK A01
KAUN 221435Z AUTO 09011KT 10SM CLR 19/01 A2999 RMK A01
KAUN 221415Z AUTO 09010KT 10SM CLR 19/01 A2998 RMK A01
KAUN 221355Z AUTO 09007KT 10SM CLR 19/01 A2999 RMK A01
KAUN 221335Z AUTO 10009KT 10SM CLR 19/01 A2998 RMK A01
KAUN 221315Z AUTO 11007KT 10SM CLR 19/01 A2998 RMK A01
KAUN 221255Z AUTO 11004KT 10SM CLR 18/01 A2998 RMK A01
KAUN 221235Z AUTO 10004KT 10SM CLR 18/01 A2998 RMK A01
KAUN 221215Z AUTO 12006G11KT 10SM CLR 18/01 A2998 RMK A01
KAUN 221155Z AUTO 10006KT 10SM CLR 18/01 A2998 RMK A01
KAUN 221135Z AUTO 10008KT 10SM CLR 19/01 A2997 RMK A01
KAUN 221115Z AUTO 11006KT 10SM CLR 19/01 A2998 RMK A01
KAUN 221055Z AUTO 11006KT 10SM CLR 18/01 A2998 RMK A01
KAUN 221035Z AUTO 08008KT 10SM CLR 19/01 A2998 RMK A01
KAUN 221015Z AUTO 08008KT 10SM CLR 19/02 A2998 RMK A01
KAUN 220955Z AUTO 09006KT 10SM CLR 19/02 A2998 RMK A01
KAUN 220935Z AUTO 09009KT 10SM CLR 19/02 A2998 RMK A01
KAUN 220915Z AUTO 11005KT 10SM CLR 19/02 A2999 RMK A01
KAUN 220855Z AUTO 11006KT 10SM CLR 19/02 A2999 RMK A01
KAUN 220835Z AUTO 09006KT 10SM CLR 20/02 A2999 RMK A01
KAUN 220815Z AUTO 09007KT 10SM CLR 20/02 A2998 RMK A01
KAUN 220755Z AUTO 09007KT 10SM CLR 19/02 A2998 RMK A01
KAUN 220735Z AUTO 09004KT 10SM CLR 20/02 A2999 RMK A01
KAUN 220715Z AUTO 11004KT 10SM CLR 21/03 A2999 RMK A01
KAUN 220655Z AUTO 11007KT 10SM CLR 21/03 A2999 RMK A01
KAUN 220635Z AUTO 12006KT 10SM CLR 22/03 A2999 RMK A01
KAUN 220615Z AUTO 11007KT 10SM CLR 21/03 A2999 RMK A01
KAUN 220555Z AUTO 09005KT 10SM CLR 21/03 A2999 RMK A01
KAUN 220535Z AUTO 10004KT 10SM CLR 21/03 A2999 RMK A01
KAUN 220515Z AUTO 09005KT 10SM CLR 22/04 A2999 RMK A01
KAUN 220455Z AUTO 09008KT 10SM CLR 23/04 A2999 RMK A01
KAUN 220435Z AUTO 09007KT 10SM CLR 22/04 A2999 RMK A01
KAUN 220415Z AUTO 00000KT 10SM CLR 20/03 A2999 RMK A01
KAUN 220355Z AUTO 00000KT 10SM CLR 19/03 A2999 RMK A01
KAUN 220335Z AUTO 00000KT 10SM CLR 18/03 A2998 RMK A01
KAUN 220315Z AUTO 00000KT 10SM CLR 17/02 A2998 RMK A01
KAUN 220255Z AUTO 00000KT 10SM CLR 17/02 A2998 RMK A01
KAUN 220235Z AUTO 00000KT 10SM CLR 19/02 A2997 RMK A01
KAUN 220215Z AUTO 00000KT 10SM CLR 23/03 A2997 RMK A01
KAUN 220155Z AUTO 00000KT 10SM CLR 25/03 A2996 RMK A01
KAUN 220135Z AUTO 26003KT 10SM CLR 27/04 A2996 RMK A01
KAUN 220115Z AUTO 26004KT 10SM CLR 29/04 A2996 RMK A01
KAUN 220055Z AUTO 25005KT 10SM CLR 29/03 A2996 RMK A01
KAUN 220035Z AUTO 26003KT 10SM CLR 30/03 A2996 RMK A01
KAUN 220015Z AUTO 22006KT 10SM CLR 30/03 A2996 RMK A01
KAUN 212355Z AUTO VRB04KT 10SM CLR 31/02 A2996 RMK A01
KAUN 212335Z AUTO 24006KT 10SM CLR 31/02 A2997 RMK A01
KAUN 212315Z AUTO 23006KT 10SM CLR 31/01 A2997 RMK A01
KAUN 212255Z AUTO 20006KT 10SM CLR 31/02 A2997 RMK A01
KAUN 212235Z AUTO 23003KT 10SM CLR 31/02 A2997 RMK A01
KAUN 212215Z AUTO 00000KT 10SM CLR 31/02 A2997 RMK A01
KAUN 212155Z AUTO 22007KT 10SM CLR 31/03 A2998 RMK A01
KAUN 212135Z AUTO 00000G10KT 10SM CLR 31/02 A2999 RMK A01
KAUN 212115Z AUTO 24007KT 220V280 10SM CLR 31/03 A2999 RMK A01
KAUN 212055Z AUTO 00000KT 10SM CLR 30/04 A2999 RMK A01
KAUN 212035Z AUTO 22007KT 10SM CLR 30/04 A3000 RMK A01